map of BDM home
Great Circle Mapper logo
BDM - Airport
Location
City:  Bandirma, Turkey
ICAO / IATA:LTBG / BDM

Details
Type:Airport (Aerodrome, Airfield)
Use:Public/Civil, Military
Latitude:4019'05"N (40.317972)
Longitude:2758'40"E (27.977694)
Datum:WGS 1984
Elevation:170 ft (52 m)
Runways:1
Longest:9865 × 147 ft (3007 × 45 m), paved

Time
Time Zone:UTC+2 (DST+3)
Local Time:

Weather
METAR:LTBG 240411Z 29018KT 7000 -SHRA SCT035 BKN100 16/14 Q1012 BECMG TL0500 04008KT RMK RWY18 29017G32KT 260V320

Related Locations
Nearby:
Farthest:NTAV: 11270 mi / 18137 km
Raivavae, Tubuai Islands, Austral Islands, PF

Find:

   beyond  
but within

Other Information
Maps:
NOTAMs:
Links:
Sources:

  
flag of Turkey   

Sectional Chart

Flight Planning
at skyvector.com

Satellite Image

Google Maps Satellite View

 

Copyright © 2004-2014 Karl L. Swartz. All rights reserved.
The Great Circle Mapper name and logo are trademarks of the Great Circle Mapper.
All other trademarks mentioned herein belong to their respective owners.
Please see credits for attibutions and further copyright information.

  Follow gcmap on Facebook Follow gcmap on Twitter

hCard Microformat

Geo Microformat